Time;durP1;ratioP1;P1;durP2;ratioP2;P2;SDS_P1;SDS_P2;PMS_P1;PMS_P2;Temp;Humidity;BMP_temperature;BMP_pressure;BME280_temperature;BME280_humidity;BME280_pressure;Samples;Min_cycle;Max_cycle;Signal;HPM_P1;HPM_P2
2022/10/23 00:01:44;;;;;;;16.92;9.57;;;;;;;;;;6316376;22;20018;-92
2022/10/23 00:04:10;;;;;;;21.27;10.63;;;;;;;;;;6251111;22;20007;-91
2022/10/23 00:06:36;;;;;;;19.52;9.65;;;;;;;;;;6316431;22;20024;-91
2022/10/23 00:09:03;;;;;;;21.30;10.05;;;;;;;;;;6316880;22;19999;-91
2022/10/23 00:11:30;;;;;;;22.67;11.20;;;;;;;;;;6316395;22;20007;-91
2022/10/23 00:13:58;;;;;;;21.17;10.73;;;;;;;;;;6316707;22;20014;-92
2022/10/23 00:16:24;;;;;;;19.13;10.30;;;;;;;;;;6317313;22;20440;-92
2022/10/23 00:18:50;;;;;;;24.13;12.35;;;;;;;;;;6317040;22;19999;-91
2022/10/23 00:21:17;;;;;;;25.13;12.52;;;;;;;;;;6317132;22;20027;-89
2022/10/23 00:23:43;;;;;;;30.35;13.40;;;;;;;;;;6328095;22;20006;-89
2022/10/23 00:26:10;;;;;;;26.83;12.95;;;;;;;;;;6322774;22;20007;-91
2022/10/23 00:28:37;;;;;;;26.05;13.18;;;;;;;;;;6316785;22;20007;-91
2022/10/23 00:31:05;;;;;;;28.40;13.40;;;;;;;;;;6342668;22;20063;-93
2022/10/23 00:33:32;;;;;;;32.88;13.98;;;;;;;;;;6319418;22;20006;-92
2022/10/23 00:35:58;;;;;;;24.30;14.10;;;;;;;;;;6315580;22;20416;-91
2022/10/23 00:38:27;;;;;;;33.78;14.85;;;;;;;;;;6314073;22;20042;-92
2022/10/23 00:40:53;;;;;;;27.83;14.05;;;;;;;;;;6314350;22;20042;-91
2022/10/23 00:43:23;;;;;;;75.88;15.05;;;;;;;;;;6315350;22;20003;-91
2022/10/23 00:45:50;;;;;;;88.53;15.10;;;;;;;;;;6316118;22;20010;-92
2022/10/23 00:48:16;;;;;;;36.65;12.88;;;;;;;;;;6316836;22;20484;-91
2022/10/23 00:50:42;;;;;;;54.53;14.05;;;;;;;;;;6318225;22;20007;-91
2022/10/23 00:53:09;;;;;;;78.20;15.18;;;;;;;;;;6315673;22;19999;-92
2022/10/23 00:55:37;;;;;;;58.17;15.05;;;;;;;;;;6316499;22;20013;-91
2022/10/23 00:58:03;;;;;;;78.05;14.27;;;;;;;;;;6316108;22;20320;-91
2022/10/23 01:00:31;;;;;;;37.38;13.07;;;;;;;;;;6315743;22;20011;-92
2022/10/23 01:02:57;;;;;;;71.43;15.05;;;;;;;;;;6317384;22;20010;-92
2022/10/23 01:05:32;;;;;;;54.92;14.43;;;;;;;;;;6315957;22;20003;-92
2022/10/23 01:08:07;;;;;;;37.35;13.25;;;;;;;;;;6315250;22;20412;-90
2022/10/23 01:10:45;;;;;;;67.13;14.52;;;;;;;;;;6315575;22;20009;-92
2022/10/23 01:13:23;;;;;;;50.35;12.32;;;;;;;;;;6315857;22;20007;-91
2022/10/23 01:16:02;;;;;;;33.58;11.80;;;;;;;;;;6317753;22;20428;-91
2022/10/23 01:18:28;;;;;;;42.58;10.82;;;;;;;;;;6315222;22;20431;-92
2022/10/23 01:21:10;;;;;;;75.38;13.45;;;;;;;;;;6313673;22;20011;-90
2022/10/23 01:23:36;;;;;;;41.53;13.00;;;;;;;;;;6314388;22;20014;-92
2022/10/23 01:26:21;;;;;;;60.15;13.02;;;;;;;;;;6314696;22;20366;-92
2022/10/23 01:28:50;;;;;;;68.45;14.40;;;;;;;;;;6314112;22;20089;-92
2022/10/23 01:31:28;;;;;;;34.55;12.65;;;;;;;;;;6314605;22;20003;-92
2022/10/23 01:34:08;;;;;;;32.45;12.88;;;;;;;;;;6316742;22;20022;-91
2022/10/23 01:36:41;;;;;;;80.30;14.13;;;;;;;;;;6315556;22;20002;-92
2022/10/23 01:39:12;;;;;;;56.00;12.00;;;;;;;;;;6314764;22;20424;-91
2022/10/23 01:41:47;;;;;;;53.65;12.32;;;;;;;;;;6314853;22;20003;-90
2022/10/23 01:44:19;;;;;;;64.97;11.40;;;;;;;;;;6315165;22;20003;-92
2022/10/23 01:46:52;;;;;;;58.03;12.18;;;;;;;;;;6315084;22;20424;-92
2022/10/23 01:49:20;;;;;;;50.03;12.10;;;;;;;;;;6315023;22;20002;-90
2022/10/23 01:51:55;;;;;;;35.50;12.65;;;;;;;;;;6317341;22;20013;-93
2022/10/23 01:54:32;;;;;;;55.67;13.10;;;;;;;;;;6315712;22;20085;-92
2022/10/23 01:57:01;;;;;;;28.77;11.13;;;;;;;;;;6315673;22;20085;-92
2022/10/23 01:59:31;;;;;;;67.95;14.07;;;;;;;;;;6314851;22;20037;-91
2022/10/23 02:02:01;;;;;;;33.20;11.68;;;;;;;;;;6316322;22;19999;-92
2022/10/23 02:04:42;;;;;;;55.38;12.25;;;;;;;;;;6316644;22;19998;-91
2022/10/23 02:07:08;;;;;;;41.28;11.95;;;;;;;;;;6326341;22;20003;-90
2022/10/23 02:09:34;;;;;;;48.80;13.02;;;;;;;;;;6326372;22;20003;-92
2022/10/23 02:12:13;;;;;;;63.47;13.38;;;;;;;;;;6314639;22;20028;-91
2022/10/23 02:15:05;;;;;;;39.35;12.50;;;;;;;;;;6315786;22;20434;-91
2022/10/23 02:18:01;;;;;;;60.40;14.13;;;;;;;;;;6308934;22;20058;-91
2022/10/23 02:20:45;;;;;;;24.35;12.13;;;;;;;;;;6203060;22;20044;-91
2022/10/23 02:23:14;;;;;;;28.27;12.40;;;;;;;;;;6314667;22;20014;-91
2022/10/23 02:26:06;;;;;;;36.42;13.43;;;;;;;;;;6314093;22;20010;-92
2022/10/23 02:28:39;;;;;;;41.40;13.27;;;;;;;;;;6314495;22;20171;-91
2022/10/23 02:31:10;;;;;;;59.78;12.93;;;;;;;;;;6314609;22;20010;-91
2022/10/23 02:33:36;;;;;;;54.15;13.27;;;;;;;;;;6314030;22;20029;-91
2022/10/23 02:36:02;;;;;;;40.72;13.68;;;;;;;;;;6314277;22;19999;-92
2022/10/23 02:38:34;;;;;;;37.95;13.60;;;;;;;;;;6314204;22;20007;-92
2022/10/23 02:41:19;;;;;;;30.35;13.82;;;;;;;;;;6314623;22;20015;-92
2022/10/23 02:44:01;;;;;;;37.38;13.20;;;;;;;;;;6314889;22;20420;-92
2022/10/23 02:46:46;;;;;;;30.23;13.93;;;;;;;;;;6314575;22;20472;-91
2022/10/23 02:49:14;;;;;;;27.05;13.32;;;;;;;;;;6314225;22;20438;-91
2022/10/23 02:51:52;;;;;;;28.77;13.85;;;;;;;;;;6314791;22;20014;-91
2022/10/23 02:54:27;;;;;;;39.20;14.48;;;;;;;;;;6314371;22;20003;-91
2022/10/23 02:56:59;;;;;;;24.13;13.07;;;;;;;;;;6314075;22;20007;-91
2022/10/23 02:59:39;;;;;;;36.60;14.30;;;;;;;;;;6314097;22;20022;-91
2022/10/23 03:02:27;;;;;;;28.27;14.70;;;;;;;;;;6313731;22;20087;-90
2022/10/23 03:04:55;;;;;;;28.33;14.43;;;;;;;;;;6343943;22;20003;-90
2022/10/23 03:07:25;;;;;;;29.52;15.35;;;;;;;;;;6314367;22;20025;-91
2022/10/23 03:10:07;;;;;;;31.83;16.60;;;;;;;;;;6314304;22;20007;-90
2022/10/23 03:12:34;;;;;;;32.55;15.85;;;;;;;;;;6314351;22;20435;-90
2022/10/23 03:15:00;;;;;;;39.67;18.40;;;;;;;;;;6313872;22;20003;-92
2022/10/23 03:17:26;;;;;;;33.70;17.30;;;;;;;;;;6313256;22;20339;-91
2022/10/23 03:19:53;;;;;;;41.33;16.00;;;;;;;;;;6312703;22;20071;-91
2022/10/23 03:22:19;;;;;;;39.90;18.33;;;;;;;;;;6313241;22;19998;-91
2022/10/23 03:24:45;;;;;;;58.58;16.90;;;;;;;;;;6315313;22;20335;-92
2022/10/23 03:27:11;;;;;;;86.88;17.48;;;;;;;;;;6314661;22;20420;-91
2022/10/23 03:29:37;;;;;;;108.00;18.40;;;;;;;;;;6314599;22;20019;-91
2022/10/23 03:32:04;;;;;;;125.05;22.15;;;;;;;;;;6315083;22;20022;-91
2022/10/23 03:34:30;;;;;;;149.45;21.42;;;;;;;;;;6315095;22;20003;-90
2022/10/23 03:36:56;;;;;;;103.53;19.35;;;;;;;;;;6314676;22;20003;-92
2022/10/23 03:39:22;;;;;;;116.00;19.38;;;;;;;;;;6315946;22;20428;-91
2022/10/23 03:41:51;;;;;;;104.43;20.33;;;;;;;;;;6324511;22;19999;-92
2022/10/23 03:44:18;;;;;;;78.50;21.20;;;;;;;;;;6313794;22;20090;-92
2022/10/23 03:46:44;;;;;;;91.15;18.70;;;;;;;;;;6315361;22;20003;-92
2022/10/23 03:49:10;;;;;;;90.72;20.73;;;;;;;;;;6316023;22;20034;-92
2022/10/23 03:51:40;;;;;;;141.70;19.92;;;;;;;;;;6313119;22;20064;-92
2022/10/23 03:54:06;;;;;;;109.65;20.15;;;;;;;;;;6325535;22;20003;-90
2022/10/23 03:56:32;;;;;;;66.45;18.00;;;;;;;;;;6316713;22;19999;-92
2022/10/23 03:58:58;;;;;;;94.30;19.08;;;;;;;;;;6315440;22;20044;-92
2022/10/23 04:01:25;;;;;;;81.60;19.05;;;;;;;;;;6313514;22;20007;-92
2022/10/23 04:03:51;;;;;;;107.82;17.38;;;;;;;;;;6313650;22;20504;-92
2022/10/23 04:06:17;;;;;;;100.13;17.05;;;;;;;;;;6314106;22;20007;-91
2022/10/23 04:08:44;;;;;;;106.63;18.42;;;;;;;;;;6314414;22;20011;-92
2022/10/23 04:11:10;;;;;;;109.43;18.45;;;;;;;;;;6314120;22;20091;-92
2022/10/23 04:13:36;;;;;;;76.80;16.33;;;;;;;;;;6315213;22;20006;-93
2022/10/23 04:16:03;;;;;;;138.20;16.80;;;;;;;;;;6314449;22;20003;-92
2022/10/23 04:18:29;;;;;;;72.88;16.25;;;;;;;;;;6313605;22;19987;-91
2022/10/23 04:20:55;;;;;;;112.55;17.25;;;;;;;;;;6313715;22;20068;-92
2022/10/23 04:23:21;;;;;;;87.55;16.33;;;;;;;;;;6340572;22;20030;-92
2022/10/23 04:25:47;;;;;;;80.43;18.10;;;;;;;;;;6313386;22;20007;-92
2022/10/23 04:28:13;;;;;;;59.42;16.23;;;;;;;;;;6314130;22;20082;-91
2022/10/23 04:30:40;;;;;;;55.85;16.45;;;;;;;;;;6313108;22;20451;-92
2022/10/23 04:33:09;;;;;;;78.57;16.92;;;;;;;;;;6314207;22;20509;-92
2022/10/23 04:35:35;;;;;;;96.95;16.63;;;;;;;;;;6315231;22;20003;-92
2022/10/23 04:38:07;;;;;;;59.70;15.43;;;;;;;;;;6316143;22;19999;-92
2022/10/23 04:40:40;;;;;;;71.15;16.20;;;;;;;;;;6314685;22;20011;-91
2022/10/23 04:43:09;;;;;;;68.03;16.40;;;;;;;;;;6316294;22;20336;-93
2022/10/23 04:45:38;;;;;;;58.28;16.73;;;;;;;;;;6315789;22;20014;-92
2022/10/23 04:48:08;;;;;;;65.35;17.02;;;;;;;;;;6315964;22;20027;-92
2022/10/23 04:50:37;;;;;;;60.03;17.58;;;;;;;;;;6315794;22;20409;-92
2022/10/23 04:59:17;;;;;;;39.10;15.05;;;;;;;;;;6344574;22;20005;-88
2022/10/23 05:05:13;;;;;;;94.75;20.60;;;;;;;;;;6341877;22;20010;-89
2022/10/23 05:07:46;;;;;;;30.90;15.55;;;;;;;;;;6311601;22;20010;-88
2022/10/23 05:12:58;;;;;;;47.13;17.60;;;;;;;;;;6326507;22;20006;-89
2022/10/23 05:15:24;;;;;;;40.78;16.15;;;;;;;;;;6320563;22;20010;-89
2022/10/23 05:18:29;;;;;;;34.50;17.83;;;;;;;;;;6342351;22;20002;-90
2022/10/23 05:20:58;;;;;;;43.47;16.05;;;;;;;;;;6217539;23;20528;-88
2022/10/23 05:23:29;;;;;;;38.60;17.60;;;;;;;;;;6295099;22;20003;-91
2022/10/23 05:26:04;;;;;;;48.78;17.42;;;;;;;;;;6316414;22;20009;-90
2022/10/23 05:28:42;;;;;;;43.42;17.10;;;;;;;;;;6317795;22;20006;-89
2022/10/23 05:34:02;;;;;;;48.47;15.68;;;;;;;;;;6335866;22;20502;-90
2022/10/23 05:36:29;;;;;;;54.92;16.77;;;;;;;;;;6285534;22;20428;-91
2022/10/23 05:39:07;;;;;;;85.93;17.27;;;;;;;;;;6221904;23;20068;-90
2022/10/23 05:41:44;;;;;;;49.80;14.73;;;;;;;;;;6205832;23;19993;-89
2022/10/23 05:44:22;;;;;;;37.15;15.00;;;;;;;;;;6192970;23;20024;-89
2022/10/23 05:47:00;;;;;;;40.88;14.60;;;;;;;;;;6192177;23;20441;-88
2022/10/23 05:49:38;;;;;;;41.20;15.93;;;;;;;;;;6220997;23;20028;-89
2022/10/23 05:54:57;;;;;;;28.48;14.10;;;;;;;;;;6273193;22;20034;-89
2022/10/23 06:00:30;;;;;;;68.75;26.83;;;;;;;;;;6311508;22;20026;-88
2022/10/23 06:03:03;;;;;;;26.30;14.18;;;;;;;;;;6284295;22;20027;-90
2022/10/23 06:05:34;;;;;;;33.83;13.93;;;;;;;;;;6289031;22;20010;-88
2022/10/23 06:08:01;;;;;;;48.90;13.43;;;;;;;;;;6284037;22;20081;-90
2022/10/23 06:10:35;;;;;;;32.25;13.93;;;;;;;;;;6285082;22;20003;-89
2022/10/23 06:13:01;;;;;;;41.15;14.85;;;;;;;;;;6284747;22;20014;-90
2022/10/23 06:15:40;;;;;;;49.22;15.63;;;;;;;;;;6314596;22;20444;-89
2022/10/23 06:21:13;;;;;;;39.13;12.77;;;;;;;;;;6313498;22;20072;-94
2022/10/23 06:23:42;;;;;;;43.40;12.25;;;;;;;;;;6288567;22;19994;-90
2022/10/23 06:29:12;;;;;;;38.75;13.45;;;;;;;;;;6312934;22;20022;-92
2022/10/23 06:31:41;;;;;;;32.60;13.25;;;;;;;;;;6287878;22;20014;-90
2022/10/23 06:34:10;;;;;;;41.20;19.35;;;;;;;;;;6287874;22;20022;-91
2022/10/23 06:36:36;;;;;;;43.85;13.52;;;;;;;;;;6288777;22;20089;-91
2022/10/23 06:39:04;;;;;;;31.48;14.32;;;;;;;;;;6288875;22;20023;-91
2022/10/23 06:41:35;;;;;;;31.85;16.67;;;;;;;;;;6288877;22;20007;-95
2022/10/23 06:44:01;;;;;;;37.92;13.80;;;;;;;;;;6293985;22;20325;-93
2022/10/23 06:46:33;;;;;;;31.05;13.40;;;;;;;;;;6289833;22;20022;-93
2022/10/23 06:49:05;;;;;;;26.55;13.27;;;;;;;;;;6291138;22;20041;-93
2022/10/23 06:51:31;;;;;;;37.63;13.57;;;;;;;;;;6302447;22;19999;-92
2022/10/23 06:54:00;;;;;;;40.30;12.88;;;;;;;;;;6290429;22;20015;-93
2022/10/23 06:56:33;;;;;;;31.25;13.43;;;;;;;;;;6286515;22;20098;-91
2022/10/23 06:59:00;;;;;;;29.02;12.95;;;;;;;;;;6283044;22;20003;-93
2022/10/23 07:01:26;;;;;;;28.77;12.77;;;;;;;;;;6291125;22;20094;-92
2022/10/23 07:06:56;;;;;;;20.35;11.57;;;;;;;;;;6310630;22;20042;-94
2022/10/23 07:09:22;;;;;;;20.70;12.10;;;;;;;;;;6284501;22;20014;-94
2022/10/23 07:12:21;;;;;;;24.58;13.27;;;;;;;;;;6293759;22;20035;-96
2022/10/23 07:14:47;;;;;;;22.55;12.48;;;;;;;;;;6289918;22;20014;-94
2022/10/23 07:17:13;;;;;;;33.20;13.75;;;;;;;;;;6295845;22;20086;-93
2022/10/23 07:19:42;;;;;;;28.10;13.32;;;;;;;;;;6298819;22;20045;-92
2022/10/23 07:22:13;;;;;;;22.30;12.55;;;;;;;;;;6328850;22;20003;-96
2022/10/23 07:24:39;;;;;;;25.17;13.27;;;;;;;;;;6318467;22;20082;-93
2022/10/23 07:27:35;;;;;;;27.77;12.85;;;;;;;;;;6322940;22;20037;-92
2022/10/23 07:30:01;;;;;;;22.80;12.57;;;;;;;;;;6296409;22;20015;-93
2022/10/23 07:32:27;;;;;;;25.23;13.93;;;;;;;;;;6318488;22;20462;-90
2022/10/23 07:35:00;;;;;;;29.15;13.57;;;;;;;;;;6315806;22;20036;-89
2022/10/23 07:40:34;;;;;;;34.85;13.68;;;;;;;;;;6347428;22;20026;-92
2022/10/23 07:43:05;;;;;;;45.13;14.50;;;;;;;;;;6313487;22;20014;-93
2022/10/23 07:45:31;;;;;;;35.92;13.48;;;;;;;;;;6312786;22;20003;-91
2022/10/23 07:47:57;;;;;;;28.60;12.88;;;;;;;;;;6314098;22;20002;-92
2022/10/23 07:50:25;;;;;;;40.15;13.23;;;;;;;;;;6314993;22;19999;-92
2022/10/23 07:55:41;;;;;;;60.78;13.57;;;;;;;;;;6326243;22;20007;-94
2022/10/23 07:58:07;;;;;;;30.70;14.40;;;;;;;;;;6314196;22;19999;-90
2022/10/23 08:00:36;;;;;;;24.95;14.50;;;;;;;;;;6314863;22;20011;-95
2022/10/23 08:03:02;;;;;;;23.23;13.15;;;;;;;;;;6315487;22;20001;-92
2022/10/23 08:05:28;;;;;;;22.52;13.05;;;;;;;;;;6314602;22;20007;-91
2022/10/23 08:07:54;;;;;;;23.02;14.13;;;;;;;;;;6318082;22;20003;-91
2022/10/23 08:10:23;;;;;;;39.85;16.58;;;;;;;;;;6328690;22;19999;-92
2022/10/23 08:12:50;;;;;;;41.60;14.90;;;;;;;;;;6317556;22;20003;-92
2022/10/23 08:15:16;;;;;;;63.35;16.58;;;;;;;;;;6316238;22;20038;-92
2022/10/23 08:17:42;;;;;;;30.40;17.02;;;;;;;;;;6317152;22;20297;-92
2022/10/23 08:20:08;;;;;;;50.30;15.65;;;;;;;;;;6316276;22;20015;-96
2022/10/23 08:22:36;;;;;;;38.65;16.02;;;;;;;;;;6318122;22;20003;-92
2022/10/23 08:25:05;;;;;;;28.55;16.48;;;;;;;;;;6318982;22;20011;-96
2022/10/23 08:27:33;;;;;;;25.85;15.65;;;;;;;;;;6319891;22;20022;-94
2022/10/23 08:29:59;;;;;;;21.92;13.10;;;;;;;;;;6335399;22;20113;-92
2022/10/23 08:32:28;;;;;;;28.42;13.68;;;;;;;;;;6317719;22;20081;-90
2022/10/23 08:34:54;;;;;;;25.45;15.07;;;;;;;;;;6320434;22;20007;-91
2022/10/23 08:37:20;;;;;;;28.20;14.50;;;;;;;;;;6322025;22;19987;-91
2022/10/23 08:39:46;;;;;;;21.40;13.77;;;;;;;;;;6325485;22;20017;-91
2022/10/23 08:42:24;;;;;;;23.08;14.15;;;;;;;;;;6318396;22;20420;-90
2022/10/23 08:45:10;;;;;;;22.70;13.93;;;;;;;;;;6324125;22;20003;-92
2022/10/23 08:47:40;;;;;;;25.95;14.82;;;;;;;;;;6319646;22;20007;-90
2022/10/23 08:50:27;;;;;;;31.55;13.60;;;;;;;;;;6324373;22;20005;-89
2022/10/23 08:53:04;;;;;;;23.70;13.82;;;;;;;;;;6317476;22;20022;-91
2022/10/23 08:55:38;;;;;;;21.48;13.52;;;;;;;;;;6316520;22;20003;-90
2022/10/23 08:58:23;;;;;;;23.70;14.15;;;;;;;;;;6314954;22;20003;-92
2022/10/23 09:00:51;;;;;;;22.83;13.68;;;;;;;;;;6283607;22;20016;-91
2022/10/23 09:03:21;;;;;;;22.98;14.07;;;;;;;;;;6279441;22;20004;-96
2022/10/23 09:06:07;;;;;;;27.02;14.02;;;;;;;;;;6282390;22;20385;-95
2022/10/23 09:11:40;;;;;;;24.17;14.70;;;;;;;;;;6288616;22;20018;-91
2022/10/23 09:14:09;;;;;;;21.70;13.52;;;;;;;;;;6286660;22;20006;-91
2022/10/23 09:25:55;;;;;;;24.83;14.60;;;;;;;;;;6187120;23;20485;-92
2022/10/23 09:28:27;;;;;;;23.40;14.35;;;;;;;;;;6239487;22;20000;-90
2022/10/23 09:34:32;;;;;;;20.90;13.52;;;;;;;;;;6264651;22;19999;-91
2022/10/23 09:37:00;;;;;;;22.85;13.02;;;;;;;;;;6281132;22;20004;-90
2022/10/23 09:39:41;;;;;;;22.83;14.05;;;;;;;;;;6285679;22;20460;-89
2022/10/23 09:42:26;;;;;;;18.45;12.15;;;;;;;;;;6281817;22;20031;-90
2022/10/23 09:44:58;;;;;;;22.42;13.48;;;;;;;;;;6284817;22;20010;-91
2022/10/23 09:47:28;;;;;;;23.38;13.88;;;;;;;;;;6282777;22;20011;-96
2022/10/23 09:49:56;;;;;;;24.63;13.75;;;;;;;;;;6281272;22;20022;-88
2022/10/23 09:52:31;;;;;;;21.52;13.45;;;;;;;;;;6281735;22;20004;-96
2022/10/23 09:55:02;;;;;;;27.77;16.02;;;;;;;;;;6281541;22;20008;-95
2022/10/23 09:57:31;;;;;;;25.25;14.02;;;;;;;;;;6287176;22;20008;-88
2022/10/23 10:00:07;;;;;;;26.23;15.15;;;;;;;;;;6293631;22;20042;-89
2022/10/23 10:02:36;;;;;;;27.33;15.88;;;;;;;;;;6293431;22;20000;-96
2022/10/23 10:05:21;;;;;;;25.75;15.32;;;;;;;;;;6282932;22;20083;-96
2022/10/23 10:07:56;;;;;;;24.40;14.73;;;;;;;;;;6297651;22;20008;-91
2022/10/23 10:10:23;;;;;;;26.88;15.43;;;;;;;;;;6284617;22;20007;-92
2022/10/23 10:13:01;;;;;;;29.13;15.60;;;;;;;;;;6287998;22;20012;-93
2022/10/23 10:15:57;;;;;;;24.08;14.57;;;;;;;;;;6287210;22;20008;-96
2022/10/23 10:18:29;;;;;;;29.20;16.25;;;;;;;;;;6285621;22;20093;-92
2022/10/23 10:21:01;;;;;;;32.22;19.08;;;;;;;;;;6282464;22;20440;-94
2022/10/23 10:23:42;;;;;;;30.23;15.60;;;;;;;;;;6278136;22;19999;-92
2022/10/23 10:26:31;;;;;;;24.42;14.45;;;;;;;;;;6285278;22;20026;-91
2022/10/23 10:29:07;;;;;;;29.98;15.90;;;;;;;;;;6281505;22;20004;-96
2022/10/23 10:32:01;;;;;;;33.75;17.40;;;;;;;;;;6287509;22;20004;-96
2022/10/23 10:34:36;;;;;;;;;;;;;;;;;;6289614;22;20007;-96
2022/10/23 10:37:02;;;;;;;23.40;12.82;;;;;;;;;;6279141;22;19899;-89
2022/10/23 10:39:36;;;;;;;24.60;14.13;;;;;;;;;;6285630;22;20012;-91
2022/10/23 10:42:21;;;;;;;24.70;13.13;;;;;;;;;;6280869;22;20437;-95
2022/10/23 10:45:07;;;;;;;21.13;13.00;;;;;;;;;;6286641;22;20022;-93
2022/10/23 10:47:52;;;;;;;24.67;15.25;;;;;;;;;;6281204;22;20015;-90
2022/10/23 10:50:21;;;;;;;25.85;14.25;;;;;;;;;;6277781;22;20035;-90
2022/10/23 10:52:47;;;;;;;23.60;13.68;;;;;;;;;;6281227;22;20302;-90
2022/10/23 10:58:29;;;;;;;22.50;12.85;;;;;;;;;;6283653;22;20068;-93
2022/10/23 11:00:58;;;;;;;23.02;13.73;;;;;;;;;;6252755;22;20069;-91
2022/10/23 11:03:30;;;;;;;25.77;15.52;;;;;;;;;;6260402;22;19992;-91
2022/10/23 11:06:25;;;;;;;22.38;14.43;;;;;;;;;;6254914;22;20008;-92
2022/10/23 11:08:51;;;;;;;22.90;14.02;;;;;;;;;;6256412;22;20042;-92
2022/10/23 11:11:20;;;;;;;22.02;13.85;;;;;;;;;;6253588;22;20026;-90
2022/10/23 11:13:47;;;;;;;23.33;14.10;;;;;;;;;;6251461;22;20007;-90
2022/10/23 11:16:20;;;;;;;21.75;14.27;;;;;;;;;;6251466;22;20338;-91
2022/10/23 11:18:49;;;;;;;24.15;13.30;;;;;;;;;;6255901;22;20006;-91
2022/10/23 11:21:45;;;;;;;22.67;14.50;;;;;;;;;;6254202;22;20012;-91
2022/10/23 11:24:26;;;;;;;21.92;14.13;;;;;;;;;;6229395;22;20061;-89
2022/10/23 11:27:08;;;;;;;23.17;14.73;;;;;;;;;;6252923;22;20008;-92
2022/10/23 11:29:48;;;;;;;22.25;13.88;;;;;;;;;;6252231;22;20079;-91
2022/10/23 11:32:19;;;;;;;27.10;16.52;;;;;;;;;;6255044;22;20018;-91
2022/10/23 11:34:50;;;;;;;25.02;16.00;;;;;;;;;;6252861;22;20030;-90
2022/10/23 11:37:26;;;;;;;21.75;14.52;;;;;;;;;;6253829;22;19988;-89
2022/10/23 11:40:28;;;;;;;30.05;16.15;;;;;;;;;;6256158;22;20011;-89
2022/10/23 11:43:00;;;;;;;24.00;14.30;;;;;;;;;;6175203;23;20009;-91
2022/10/23 11:45:28;;;;;;;25.30;14.50;;;;;;;;;;6151203;23;20025;-91
2022/10/23 11:48:06;;;;;;;23.63;14.85;;;;;;;;;;6138002;23;20092;-94
2022/10/23 11:50:35;;;;;;;22.52;14.07;;;;;;;;;;6169652;22;20015;-90
2022/10/23 11:53:09;;;;;;;25.42;16.20;;;;;;;;;;6254403;22;20054;-93
2022/10/23 11:55:36;;;;;;;26.90;16.92;;;;;;;;;;6254360;22;20492;-92
2022/10/23 11:58:02;;;;;;;26.58;16.58;;;;;;;;;;6253099;22;20078;-91
2022/10/23 12:00:29;;;;;;;23.88;15.32;;;;;;;;;;6253733;22;20057;-91
2022/10/23 12:02:57;;;;;;;23.48;14.68;;;;;;;;;;6252913;22;20035;-90
2022/10/23 12:05:25;;;;;;;20.88;13.20;;;;;;;;;;6256406;22;20008;-91
2022/10/23 12:07:59;;;;;;;20.90;13.75;;;;;;;;;;6257627;22;20031;-90
2022/10/23 12:10:25;;;;;;;22.27;14.23;;;;;;;;;;6254666;22;20090;-93
2022/10/23 12:13:08;;;;;;;24.60;15.45;;;;;;;;;;6253061;22;20026;-93
2022/10/23 12:15:39;;;;;;;25.20;16.23;;;;;;;;;;6254241;22;20007;-90
2022/10/23 12:18:15;;;;;;;26.23;15.85;;;;;;;;;;6256504;22;20034;-87
2022/10/23 12:20:47;;;;;;;28.65;15.85;;;;;;;;;;6254937;22;20015;-95
2022/10/23 12:23:23;;;;;;;27.65;15.70;;;;;;;;;;6281361;22;20003;-92
2022/10/23 12:25:56;;;;;;;28.83;16.48;;;;;;;;;;6260714;22;20000;-92
2022/10/23 12:28:26;;;;;;;27.63;16.27;;;;;;;;;;6254321;22;20054;-89
2022/10/23 12:31:11;;;;;;;32.22;17.92;;;;;;;;;;6254583;22;20011;-90
2022/10/23 12:33:52;;;;;;;23.30;15.00;;;;;;;;;;6255963;22;20008;-90
2022/10/23 12:36:43;;;;;;;28.05;15.93;;;;;;;;;;6253495;22;20003;-89
2022/10/23 12:39:31;;;;;;;29.73;16.98;;;;;;;;;;6256508;22;20003;-92
2022/10/23 12:42:00;;;;;;;25.63;15.65;;;;;;;;;;6254698;22;20028;-90
2022/10/23 12:44:26;;;;;;;23.70;13.82;;;;;;;;;;6254342;22;20065;-89
2022/10/23 12:46:57;;;;;;;24.27;14.75;;;;;;;;;;6253232;22;20061;-90
2022/10/23 12:49:25;;;;;;;25.15;15.55;;;;;;;;;;6254492;22;20004;-89
2022/10/23 12:51:55;;;;;;;26.30;17.17;;;;;;;;;;6253235;22;20425;-90
2022/10/23 12:54:25;;;;;;;23.20;14.65;;;;;;;;;;6253228;22;20010;-89
2022/10/23 12:56:52;;;;;;;25.33;15.98;;;;;;;;;;6253305;22;20487;-88
2022/10/23 12:59:32;;;;;;;27.50;15.50;;;;;;;;;;6263833;22;20027;-91
2022/10/23 13:02:01;;;;;;;23.40;14.80;;;;;;;;;;6290150;22;20072;-96
2022/10/23 13:04:37;;;;;;;24.80;15.68;;;;;;;;;;6315161;22;20417;-92
2022/10/23 13:07:03;;;;;;;26.83;16.20;;;;;;;;;;6286168;22;20420;-91
2022/10/23 13:09:33;;;;;;;31.80;17.52;;;;;;;;;;6291142;22;20022;-92
2022/10/23 13:12:00;;;;;;;24.92;16.30;;;;;;;;;;6287779;22;20052;-91
2022/10/23 13:14:29;;;;;;;28.65;17.95;;;;;;;;;;6287911;22;20451;-92
2022/10/23 13:17:00;;;;;;;29.13;17.55;;;;;;;;;;6287675;22;20101;-91
2022/10/23 13:22:52;;;;;;;27.95;16.95;;;;;;;;;;6320617;22;20088;-92
2022/10/23 13:28:33;;;;;;;25.13;16.02;;;;;;;;;;6320338;22;20010;-92
2022/10/23 13:31:06;;;;;;;28.08;16.63;;;;;;;;;;6286887;22;20010;-91
2022/10/23 13:34:03;;;;;;;26.30;16.10;;;;;;;;;;6297405;22;20007;-88
2022/10/23 13:36:30;;;;;;;28.50;16.80;;;;;;;;;;6288209;22;20029;-90
2022/10/23 13:39:06;;;;;;;27.63;17.58;;;;;;;;;;6285177;22;20049;-94
2022/10/23 13:41:43;;;;;;;24.52;16.40;;;;;;;;;;6291796;22;20417;-92
2022/10/23 13:44:14;;;;;;;23.23;15.52;;;;;;;;;;6282577;22;20105;-91
2022/10/23 13:46:40;;;;;;;25.05;15.75;;;;;;;;;;6285204;22;20007;-91
2022/10/23 13:49:09;;;;;;;23.02;14.95;;;;;;;;;;6283441;22;19999;-90
2022/10/23 13:51:55;;;;;;;24.13;15.32;;;;;;;;;;6292738;22;19984;-95
2022/10/23 13:54:58;;;;;;;22.95;15.18;;;;;;;;;;6287195;22;20010;-91
2022/10/23 13:57:42;;;;;;;27.38;15.68;;;;;;;;;;6221548;23;20004;-91
2022/10/23 14:00:09;;;;;;;23.83;15.63;;;;;;;;;;6221409;23;20059;-91
2022/10/23 14:02:35;;;;;;;27.15;17.50;;;;;;;;;;6213919;23;20054;-91
2022/10/23 14:05:01;;;;;;;28.65;14.27;;;;;;;;;;6232763;22;19999;-92
2022/10/23 14:07:27;;;;;;;20.58;14.00;;;;;;;;;;6277782;22;20015;-90
2022/10/23 14:09:53;;;;;;;24.40;15.15;;;;;;;;;;6278441;22;20030;-89
2022/10/23 14:12:19;;;;;;;22.52;15.20;;;;;;;;;;6269186;22;20007;-91
2022/10/23 14:14:50;;;;;;;28.13;17.08;;;;;;;;;;6278971;22;20083;-91
2022/10/23 14:17:16;;;;;;;24.58;15.82;;;;;;;;;;6268338;22;20035;-91
2022/10/23 14:19:42;;;;;;;24.63;16.00;;;;;;;;;;6278900;22;20088;-93
2022/10/23 14:22:09;;;;;;;25.80;16.67;;;;;;;;;;6280366;22;20004;-95
2022/10/23 14:24:35;;;;;;;25.60;16.30;;;;;;;;;;6272466;22;20004;-89
2022/10/23 14:27:01;;;;;;;26.42;16.48;;;;;;;;;;6265815;22;20004;-91
2022/10/23 14:29:47;;;;;;;24.35;15.82;;;;;;;;;;6277179;22;20004;-90
2022/10/23 14:32:13;;;;;;;26.70;17.23;;;;;;;;;;6278146;22;20003;-90
2022/10/23 14:34:44;;;;;;;26.20;16.90;;;;;;;;;;6279462;22;20004;-92
2022/10/23 14:37:11;;;;;;;28.17;17.67;;;;;;;;;;6268242;22;20007;-96
2022/10/23 14:39:44;;;;;;;24.30;15.77;;;;;;;;;;6286617;22;20039;-94
2022/10/23 14:42:10;;;;;;;;;;;;;;;;;;6271980;22;20014;-96
2022/10/23 14:44:48;;;;;;;24.65;16.73;;;;;;;;;;6284482;22;19899;-96
2022/10/23 14:47:22;;;;;;;35.60;20.63;;;;;;;;;;6289474;22;20011;-96
2022/10/23 14:50:24;;;;;;;42.50;23.17;;;;;;;;;;6287149;22;20026;-96
2022/10/23 14:56:03;;;;;;;31.58;19.52;;;;;;;;;;6153033;23;19996;-94
2022/10/23 14:58:31;;;;;;;29.02;17.98;;;;;;;;;;6282428;22;20008;-96
2022/10/23 15:01:07;;;;;;;26.02;16.75;;;;;;;;;;6289062;22;20023;-95
2022/10/23 15:07:17;;;;;;;25.80;17.27;;;;;;;;;;6219017;23;20431;-96
2022/10/23 15:09:58;;;;;;;;;;;;;;;;;;;;;
2022/10/23 15:12:44;;;;;;;39.00;27.02;;;;;;;;;;6298694;22;20010;-96
2022/10/23 15:15:21;;;;;;;42.83;28.85;;;;;;;;;;6264915;22;20019;-96
2022/10/23 15:18:09;;;;;;;39.30;27.15;;;;;;;;;;6315081;22;19999;-95
2022/10/23 15:26:37;;;;;;;32.33;20.92;;;;;;;;;;6296175;22;20019;-96
2022/10/23 15:29:10;;;;;;;28.08;18.85;;;;;;;;;;6305821;22;20003;-96
2022/10/23 15:57:31;;;;;;;25.45;15.70;;;;;;;;;;6185384;23;20016;-95
2022/10/23 16:00:00;;;;;;;34.08;18.92;;;;;;;;;;6159872;23;20073;-96
2022/10/23 16:05:47;;;;;;;40.33;22.80;;;;;;;;;;6186030;23;20095;-96
2022/10/23 16:08:46;;;;;;;29.95;19.25;;;;;;;;;;6161585;23;20056;-96
2022/10/23 16:11:45;;;;;;;;;;;;;;;;;;;;;
2022/10/23 16:20:46;;;;;;;35.90;19.02;;;;;;;;;;6072159;23;20026;-96
2022/10/23 16:23:12;;;;;;;28.17;18.00;;;;;;;;;;6045910;23;20019;-92
2022/10/23 16:32:10;;;;;;;33.67;19.40;;;;;;;;;;6063511;23;20042;-96
2022/10/23 16:42:59;;;;;;;45.08;25.30;;;;;;;;;;6309247;22;20030;-95
2022/10/23 16:54:13;;;;;;;36.22;22.73;;;;;;;;;;6300436;22;20100;-96
2022/10/23 16:56:40;;;;;;;40.58;24.00;;;;;;;;;;6285871;22;20014;-94
2022/10/23 17:04:34;;;;;;;44.67;24.83;;;;;;;;;;6341145;22;20027;-95
2022/10/23 17:08:38;;;;;;;36.97;23.00;;;;;;;;;;6319552;22;20026;-96